sensor_id;sensor_type;location;lat;lon;timestamp;temperature;humidity
79020;DHT22;72857;44.740;37.770;2024-02-23T00:00:44;9.16;59.92
79020;DHT22;72857;44.740;37.770;2024-02-23T00:01:47;9.15;60.28
79020;DHT22;72857;44.740;37.770;2024-02-23T00:02:49;9.14;60.17
79020;DHT22;72857;44.740;37.770;2024-02-23T00:03:51;9.14;60.16
79020;DHT22;72857;44.740;37.770;2024-02-23T00:04:52;9.15;60.13
79020;DHT22;72857;44.740;37.770;2024-02-23T00:05:53;9.11;60.24
79020;DHT22;72857;44.740;37.770;2024-02-23T00:06:55;9.11;60.76
79020;DHT22;72857;44.740;37.770;2024-02-23T00:07:56;9.09;60.91
79020;DHT22;72857;44.740;37.770;2024-02-23T00:08:58;9.14;60.67
79020;DHT22;72857;44.740;37.770;2024-02-23T00:09:59;9.15;60.54
79020;DHT22;72857;44.740;37.770;2024-02-23T00:11:01;9.18;60.45
79020;DHT22;72857;44.740;37.770;2024-02-23T00:12:03;9.19;60.72
79020;DHT22;72857;44.740;37.770;2024-02-23T00:13:04;9.16;60.95
79020;DHT22;72857;44.740;37.770;2024-02-23T00:14:05;9.08;61.03
79020;DHT22;72857;44.740;37.770;2024-02-23T00:15:07;9.08;61.18
79020;DHT22;72857;44.740;37.770;2024-02-23T00:16:09;9.06;61.26
79020;DHT22;72857;44.740;37.770;2024-02-23T00:17:10;9.08;61.06
79020;DHT22;72857;44.740;37.770;2024-02-23T00:18:12;9.14;61.05
79020;DHT22;72857;44.740;37.770;2024-02-23T00:19:16;9.16;60.98
79020;DHT22;72857;44.740;37.770;2024-02-23T00:20:19;9.22;61.02
79020;DHT22;72857;44.740;37.770;2024-02-23T00:21:20;9.20;60.75
79020;DHT22;72857;44.740;37.770;2024-02-23T00:22:22;9.22;60.66
79020;DHT22;72857;44.740;37.770;2024-02-23T00:23:23;9.22;60.86
79020;DHT22;72857;44.740;37.770;2024-02-23T00:24:25;9.22;60.55
79020;DHT22;72857;44.740;37.770;2024-02-23T00:25:27;9.20;60.67
79020;DHT22;72857;44.740;37.770;2024-02-23T00:26:28;9.22;60.49
79020;DHT22;72857;44.740;37.770;2024-02-23T00:27:30;9.19;60.60
79020;DHT22;72857;44.740;37.770;2024-02-23T00:28:32;9.20;61.00
79020;DHT22;72857;44.740;37.770;2024-02-23T00:29:33;9.18;60.94
79020;DHT22;72857;44.740;37.770;2024-02-23T00:30:34;9.16;60.86
79020;DHT22;72857;44.740;37.770;2024-02-23T00:31:40;9.15;60.73
79020;DHT22;72857;44.740;37.770;2024-02-23T00:32:42;9.16;60.76
79020;DHT22;72857;44.740;37.770;2024-02-23T00:33:43;9.18;60.59
79020;DHT22;72857;44.740;37.770;2024-02-23T00:34:45;9.19;60.51
79020;DHT22;72857;44.740;37.770;2024-02-23T00:35:46;9.23;60.65
79020;DHT22;72857;44.740;37.770;2024-02-23T00:36:48;9.25;60.55
79020;DHT22;72857;44.740;37.770;2024-02-23T00:37:49;9.23;60.43
79020;DHT22;72857;44.740;37.770;2024-02-23T00:38:51;9.26;60.63
79020;DHT22;72857;44.740;37.770;2024-02-23T00:39:52;9.27;60.65
79020;DHT22;72857;44.740;37.770;2024-02-23T00:40:54;9.32;60.75
79020;DHT22;72857;44.740;37.770;2024-02-23T00:41:55;9.33;60.50
79020;DHT22;72857;44.740;37.770;2024-02-23T00:42:57;9.36;60.55
79020;DHT22;72857;44.740;37.770;2024-02-23T00:44:04;9.37;60.65
79020;DHT22;72857;44.740;37.770;2024-02-23T00:45:06;9.39;60.82
79020;DHT22;72857;44.740;37.770;2024-02-23T00:46:08;9.39;60.75
79020;DHT22;72857;44.740;37.770;2024-02-23T00:47:10;9.40;60.86
79020;DHT22;72857;44.740;37.770;2024-02-23T00:48:11;9.42;60.86
79020;DHT22;72857;44.740;37.770;2024-02-23T00:49:14;9.40;60.83
79020;DHT22;72857;44.740;37.770;2024-02-23T00:50:15;9.43;60.81
79020;DHT22;72857;44.740;37.770;2024-02-23T00:51:17;9.46;60.87
79020;DHT22;72857;44.740;37.770;2024-02-23T00:52:18;9.43;60.89
79020;DHT22;72857;44.740;37.770;2024-02-23T00:53:20;9.46;61.13
79020;DHT22;72857;44.740;37.770;2024-02-23T00:54:22;9.44;60.88
79020;DHT22;72857;44.740;37.770;2024-02-23T00:55:23;9.46;60.93
79020;DHT22;72857;44.740;37.770;2024-02-23T00:56:26;9.44;60.80
79020;DHT22;72857;44.740;37.770;2024-02-23T00:57:28;9.42;60.54
79020;DHT22;72857;44.740;37.770;2024-02-23T00:58:31;9.39;60.41
79020;DHT22;72857;44.740;37.770;2024-02-23T00:59:32;9.32;60.63
79020;DHT22;72857;44.740;37.770;2024-02-23T01:00:34;9.20;61.06
79020;DHT22;72857;44.740;37.770;2024-02-23T01:01:35;9.25;60.84
79020;DHT22;72857;44.740;37.770;2024-02-23T01:02:37;9.23;60.69
79020;DHT22;72857;44.740;37.770;2024-02-23T01:03:39;9.22;60.57
79020;DHT22;72857;44.740;37.770;2024-02-23T01:04:40;9.22;60.45
79020;DHT22;72857;44.740;37.770;2024-02-23T01:05:42;9.22;60.24
79020;DHT22;72857;44.740;37.770;2024-02-23T01:06:43;9.18;60.24
79020;DHT22;72857;44.740;37.770;2024-02-23T01:07:45;9.14;60.60
79020;DHT22;72857;44.740;37.770;2024-02-23T01:08:46;9.12;60.56
79020;DHT22;72857;44.740;37.770;2024-02-23T01:09:48;9.12;60.73
79020;DHT22;72857;44.740;37.770;2024-02-23T01:10:49;9.14;60.64
79020;DHT22;72857;44.740;37.770;2024-02-23T01:11:51;9.14;60.60
79020;DHT22;72857;44.740;37.770;2024-02-23T01:12:52;9.08;60.92
79020;DHT22;72857;44.740;37.770;2024-02-23T01:13:54;9.06;61.03
79020;DHT22;72857;44.740;37.770;2024-02-23T01:14:55;9.04;61.17
79020;DHT22;72857;44.740;37.770;2024-02-23T01:15:56;9.11;61.32
79020;DHT22;72857;44.740;37.770;2024-02-23T01:16:58;9.15;61.16
79020;DHT22;72857;44.740;37.770;2024-02-23T01:17:59;9.14;60.98
79020;DHT22;72857;44.740;37.770;2024-02-23T01:19:01;9.08;60.57
79020;DHT22;72857;44.740;37.770;2024-02-23T01:20:04;9.06;60.62
79020;DHT22;72857;44.740;37.770;2024-02-23T01:21:06;9.06;60.94
79020;DHT22;72857;44.740;37.770;2024-02-23T01:22:08;9.06;61.01
79020;DHT22;72857;44.740;37.770;2024-02-23T01:23:09;9.01;60.98
79020;DHT22;72857;44.740;37.770;2024-02-23T01:24:11;8.99;61.24
79020;DHT22;72857;44.740;37.770;2024-02-23T01:25:12;9.02;61.50
79020;DHT22;72857;44.740;37.770;2024-02-23T01:26:16;9.04;61.03
79020;DHT22;72857;44.740;37.770;2024-02-23T01:27:18;9.06;60.99
79020;DHT22;72857;44.740;37.770;2024-02-23T01:28:19;9.11;61.24
79020;DHT22;72857;44.740;37.770;2024-02-23T01:29:21;9.06;61.26
79020;DHT22;72857;44.740;37.770;2024-02-23T01:30:26;9.09;61.53
79020;DHT22;72857;44.740;37.770;2024-02-23T01:31:27;9.08;61.19
79020;DHT22;72857;44.740;37.770;2024-02-23T01:32:29;9.04;61.36
79020;DHT22;72857;44.740;37.770;2024-02-23T01:33:30;9.01;61.32
79020;DHT22;72857;44.740;37.770;2024-02-23T01:34:32;9.04;61.75
79020;DHT22;72857;44.740;37.770;2024-02-23T01:35:34;9.06;61.59
79020;DHT22;72857;44.740;37.770;2024-02-23T01:36:37;9.06;61.48
79020;DHT22;72857;44.740;37.770;2024-02-23T01:37:40;9.09;61.48
79020;DHT22;72857;44.740;37.770;2024-02-23T01:38:41;9.06;61.53
79020;DHT22;72857;44.740;37.770;2024-02-23T01:39:44;9.05;61.72
79020;DHT22;72857;44.740;37.770;2024-02-23T01:40:46;9.02;62.10
79020;DHT22;72857;44.740;37.770;2024-02-23T01:41:48;8.99;61.92
79020;DHT22;72857;44.740;37.770;2024-02-23T01:43:00;9.04;61.93
79020;DHT22;72857;44.740;37.770;2024-02-23T01:44:03;8.99;62.25
79020;DHT22;72857;44.740;37.770;2024-02-23T01:45:05;9.01;62.55
79020;DHT22;72857;44.740;37.770;2024-02-23T01:46:06;9.02;62.50
79020;DHT22;72857;44.740;37.770;2024-02-23T01:47:08;9.01;62.44
79020;DHT22;72857;44.740;37.770;2024-02-23T01:48:09;9.02;62.58
79020;DHT22;72857;44.740;37.770;2024-02-23T01:49:11;9.01;62.76
79020;DHT22;72857;44.740;37.770;2024-02-23T01:50:13;9.05;62.97
79020;DHT22;72857;44.740;37.770;2024-02-23T01:51:14;9.01;62.87
79020;DHT22;72857;44.740;37.770;2024-02-23T01:52:16;9.04;63.22
79020;DHT22;72857;44.740;37.770;2024-02-23T01:53:19;9.06;63.22
79020;DHT22;72857;44.740;37.770;2024-02-23T01:54:20;9.11;63.67
79020;DHT22;72857;44.740;37.770;2024-02-23T01:55:22;9.14;63.71
79020;DHT22;72857;44.740;37.770;2024-02-23T01:56:24;9.11;63.39
79020;DHT22;72857;44.740;37.770;2024-02-23T01:57:26;9.14;63.84
79020;DHT22;72857;44.740;37.770;2024-02-23T01:58:29;9.16;64.06
79020;DHT22;72857;44.740;37.770;2024-02-23T01:59:31;9.16;63.87
79020;DHT22;72857;44.740;37.770;2024-02-23T02:00:32;9.18;63.98
79020;DHT22;72857;44.740;37.770;2024-02-23T02:01:35;9.19;64.23
79020;DHT22;72857;44.740;37.770;2024-02-23T02:02:38;9.19;64.70
79020;DHT22;72857;44.740;37.770;2024-02-23T02:03:40;9.18;64.87
79020;DHT22;72857;44.740;37.770;2024-02-23T02:04:41;9.19;65.49
79020;DHT22;72857;44.740;37.770;2024-02-23T02:05:43;9.19;65.65
79020;DHT22;72857;44.740;37.770;2024-02-23T02:06:46;9.18;65.54
79020;DHT22;72857;44.740;37.770;2024-02-23T02:07:50;9.18;65.43
79020;DHT22;72857;44.740;37.770;2024-02-23T02:08:55;9.15;65.80
79020;DHT22;72857;44.740;37.770;2024-02-23T02:09:56;9.09;66.08
79020;DHT22;72857;44.740;37.770;2024-02-23T02:10:58;9.08;66.08
79020;DHT22;72857;44.740;37.770;2024-02-23T02:11:59;9.04;66.29
79020;DHT22;72857;44.740;37.770;2024-02-23T02:13:04;9.06;66.45
79020;DHT22;72857;44.740;37.770;2024-02-23T02:14:06;9.06;66.49
79020;DHT22;72857;44.740;37.770;2024-02-23T02:15:08;9.09;67.09
79020;DHT22;72857;44.740;37.770;2024-02-23T02:16:10;9.09;67.68
79020;DHT22;72857;44.740;37.770;2024-02-23T02:17:12;9.08;67.46
79020;DHT22;72857;44.740;37.770;2024-02-23T02:18:13;9.06;67.68
79020;DHT22;72857;44.740;37.770;2024-02-23T02:19:15;9.04;67.36
79020;DHT22;72857;44.740;37.770;2024-02-23T02:20:18;9.04;67.58
79020;DHT22;72857;44.740;37.770;2024-02-23T02:21:19;9.05;67.77
79020;DHT22;72857;44.740;37.770;2024-02-23T02:22:24;9.05;68.04
79020;DHT22;72857;44.740;37.770;2024-02-23T02:23:26;9.04;68.56
79020;DHT22;72857;44.740;37.770;2024-02-23T02:24:27;8.99;68.96
79020;DHT22;72857;44.740;37.770;2024-02-23T02:25:29;8.98;69.05
79020;DHT22;72857;44.740;37.770;2024-02-23T02:26:31;8.99;69.52
79020;DHT22;72857;44.740;37.770;2024-02-23T02:27:32;8.98;69.47
79020;DHT22;72857;44.740;37.770;2024-02-23T02:28:34;9.01;69.59
79020;DHT22;72857;44.740;37.770;2024-02-23T02:29:35;9.05;69.64
79020;DHT22;72857;44.740;37.770;2024-02-23T02:30:37;9.05;69.65
79020;DHT22;72857;44.740;37.770;2024-02-23T02:31:39;9.12;69.61
79020;DHT22;72857;44.740;37.770;2024-02-23T02:32:40;9.14;69.57
79020;DHT22;72857;44.740;37.770;2024-02-23T02:33:42;9.12;69.53
79020;DHT22;72857;44.740;37.770;2024-02-23T02:34:43;9.16;69.42
79020;DHT22;72857;44.740;37.770;2024-02-23T02:35:45;9.16;69.58
79020;DHT22;72857;44.740;37.770;2024-02-23T02:36:46;9.19;69.56
79020;DHT22;72857;44.740;37.770;2024-02-23T02:37:48;9.15;69.70
79020;DHT22;72857;44.740;37.770;2024-02-23T02:38:50;9.19;69.59
79020;DHT22;72857;44.740;37.770;2024-02-23T02:39:51;9.22;69.62
79020;DHT22;72857;44.740;37.770;2024-02-23T02:40:53;9.23;69.69
79020;DHT22;72857;44.740;37.770;2024-02-23T02:41:54;9.22;69.79
79020;DHT22;72857;44.740;37.770;2024-02-23T02:42:57;9.29;69.56
79020;DHT22;72857;44.740;37.770;2024-02-23T02:43:58;9.26;69.53
79020;DHT22;72857;44.740;37.770;2024-02-23T02:45:00;9.27;69.57
79020;DHT22;72857;44.740;37.770;2024-02-23T02:46:01;9.26;69.61
79020;DHT22;72857;44.740;37.770;2024-02-23T02:47:03;9.26;69.77
79020;DHT22;72857;44.740;37.770;2024-02-23T02:48:04;9.26;69.66
79020;DHT22;72857;44.740;37.770;2024-02-23T02:49:06;9.27;69.83
79020;DHT22;72857;44.740;37.770;2024-02-23T02:50:08;9.29;69.84
79020;DHT22;72857;44.740;37.770;2024-02-23T02:51:10;9.32;69.99
79020;DHT22;72857;44.740;37.770;2024-02-23T02:52:11;9.30;69.69
79020;DHT22;72857;44.740;37.770;2024-02-23T02:53:13;9.32;69.47
79020;DHT22;72857;44.740;37.770;2024-02-23T02:54:15;9.30;69.63
79020;DHT22;72857;44.740;37.770;2024-02-23T02:55:17;9.27;69.67
79020;DHT22;72857;44.740;37.770;2024-02-23T02:56:19;9.27;69.43
79020;DHT22;72857;44.740;37.770;2024-02-23T02:57:20;9.25;69.09
79020;DHT22;72857;44.740;37.770;2024-02-23T02:58:22;9.27;68.49
79020;DHT22;72857;44.740;37.770;2024-02-23T02:59:23;9.32;68.20
79020;DHT22;72857;44.740;37.770;2024-02-23T03:00:25;9.26;68.72
79020;DHT22;72857;44.740;37.770;2024-02-23T03:01:26;9.22;69.04
79020;DHT22;72857;44.740;37.770;2024-02-23T03:02:28;9.19;69.21
79020;DHT22;72857;44.740;37.770;2024-02-23T03:03:29;9.15;69.41
79020;DHT22;72857;44.740;37.770;2024-02-23T03:04:30;9.09;69.88
79020;DHT22;72857;44.740;37.770;2024-02-23T03:05:32;9.09;69.56
79020;DHT22;72857;44.740;37.770;2024-02-23T03:06:33;9.12;69.16
79020;DHT22;72857;44.740;37.770;2024-02-23T03:07:35;9.14;69.08
79020;DHT22;72857;44.740;37.770;2024-02-23T03:08:36;9.15;68.36
79020;DHT22;72857;44.740;37.770;2024-02-23T03:09:38;9.14;68.54
79020;DHT22;72857;44.740;37.770;2024-02-23T03:10:39;9.15;68.17
79020;DHT22;72857;44.740;37.770;2024-02-23T03:11:41;9.12;67.95
79020;DHT22;72857;44.740;37.770;2024-02-23T03:12:42;9.14;67.75
79020;DHT22;72857;44.740;37.770;2024-02-23T03:13:44;9.12;67.75
79020;DHT22;72857;44.740;37.770;2024-02-23T03:14:45;9.15;67.73
79020;DHT22;72857;44.740;37.770;2024-02-23T03:15:47;9.11;68.19
79020;DHT22;72857;44.740;37.770;2024-02-23T03:16:48;9.09;67.91
79020;DHT22;72857;44.740;37.770;2024-02-23T03:17:50;9.09;67.82
79020;DHT22;72857;44.740;37.770;2024-02-23T03:18:52;9.09;67.66
79020;DHT22;72857;44.740;37.770;2024-02-23T03:19:55;9.05;68.05
79020;DHT22;72857;44.740;37.770;2024-02-23T03:20:57;9.05;68.13
79020;DHT22;72857;44.740;37.770;2024-02-23T03:21:58;9.04;67.83
79020;DHT22;72857;44.740;37.770;2024-02-23T03:23:00;9.04;67.98
79020;DHT22;72857;44.740;37.770;2024-02-23T03:24:04;9.04;68.39
79020;DHT22;72857;44.740;37.770;2024-02-23T03:25:06;9.05;68.56
79020;DHT22;72857;44.740;37.770;2024-02-23T03:26:11;9.05;68.43
79020;DHT22;72857;44.740;37.770;2024-02-23T03:27:12;9.04;68.52
79020;DHT22;72857;44.740;37.770;2024-02-23T03:28:14;9.04;68.64
79020;DHT22;72857;44.740;37.770;2024-02-23T03:29:15;9.05;68.32
79020;DHT22;72857;44.740;37.770;2024-02-23T03:30:17;9.06;68.35
79020;DHT22;72857;44.740;37.770;2024-02-23T03:31:18;9.08;68.26
79020;DHT22;72857;44.740;37.770;2024-02-23T03:32:20;9.09;68.58
79020;DHT22;72857;44.740;37.770;2024-02-23T03:33:21;9.12;68.54
79020;DHT22;72857;44.740;37.770;2024-02-23T03:34:23;9.12;68.22
79020;DHT22;72857;44.740;37.770;2024-02-23T03:35:24;9.12;68.29
79020;DHT22;72857;44.740;37.770;2024-02-23T03:36:25;9.09;68.38
79020;DHT22;72857;44.740;37.770;2024-02-23T03:37:27;9.06;68.49
79020;DHT22;72857;44.740;37.770;2024-02-23T03:38:29;9.09;68.61
79020;DHT22;72857;44.740;37.770;2024-02-23T03:39:31;9.06;68.62
79020;DHT22;72857;44.740;37.770;2024-02-23T03:40:33;9.06;68.42
79020;DHT22;72857;44.740;37.770;2024-02-23T03:41:36;9.12;68.19
79020;DHT22;72857;44.740;37.770;2024-02-23T03:42:38;9.14;68.20
79020;DHT22;72857;44.740;37.770;2024-02-23T03:43:39;9.15;68.23
79020;DHT22;72857;44.740;37.770;2024-02-23T03:44:41;9.18;68.42
79020;DHT22;72857;44.740;37.770;2024-02-23T03:45:43;9.16;68.78
79020;DHT22;72857;44.740;37.770;2024-02-23T03:46:45;9.16;68.57
79020;DHT22;72857;44.740;37.770;2024-02-23T03:47:46;9.11;68.58
79020;DHT22;72857;44.740;37.770;2024-02-23T03:48:48;9.08;68.64
79020;DHT22;72857;44.740;37.770;2024-02-23T03:49:49;9.02;68.83
79020;DHT22;72857;44.740;37.770;2024-02-23T03:50:51;8.95;69.05
79020;DHT22;72857;44.740;37.770;2024-02-23T03:51:52;8.91;68.82
79020;DHT22;72857;44.740;37.770;2024-02-23T03:52:54;8.93;68.63
79020;DHT22;72857;44.740;37.770;2024-02-23T03:53:55;8.92;68.44
79020;DHT22;72857;44.740;37.770;2024-02-23T03:54:57;8.91;68.79
79020;DHT22;72857;44.740;37.770;2024-02-23T03:55:58;8.91;68.66
79020;DHT22;72857;44.740;37.770;2024-02-23T03:56:59;8.88;68.67
79020;DHT22;72857;44.740;37.770;2024-02-23T03:58:01;8.86;68.89
79020;DHT22;72857;44.740;37.770;2024-02-23T03:59:02;8.84;69.23
79020;DHT22;72857;44.740;37.770;2024-02-23T04:00:04;8.85;69.11
79020;DHT22;72857;44.740;37.770;2024-02-23T04:01:12;8.85;69.15
79020;DHT22;72857;44.740;37.770;2024-02-23T04:02:14;8.84;69.19
79020;DHT22;72857;44.740;37.770;2024-02-23T04:03:15;8.81;69.24
79020;DHT22;72857;44.740;37.770;2024-02-23T04:04:17;8.79;69.26
79020;DHT22;72857;44.740;37.770;2024-02-23T04:05:18;8.79;69.19
79020;DHT22;72857;44.740;37.770;2024-02-23T04:06:20;8.76;69.27
79020;DHT22;72857;44.740;37.770;2024-02-23T04:07:22;8.81;69.30
79020;DHT22;72857;44.740;37.770;2024-02-23T04:08:23;8.78;69.45
79020;DHT22;72857;44.740;37.770;2024-02-23T04:09:25;8.82;69.46
79020;DHT22;72857;44.740;37.770;2024-02-23T04:10:27;8.85;69.56
79020;DHT22;72857;44.740;37.770;2024-02-23T04:11:28;8.89;69.56
79020;DHT22;72857;44.740;37.770;2024-02-23T04:12:30;8.89;69.81
79020;DHT22;72857;44.740;37.770;2024-02-23T04:13:32;8.86;70.26
79020;DHT22;72857;44.740;37.770;2024-02-23T04:14:33;8.84;70.34
79020;DHT22;72857;44.740;37.770;2024-02-23T04:15:37;8.91;70.41
79020;DHT22;72857;44.740;37.770;2024-02-23T04:16:38;8.85;70.52
79020;DHT22;72857;44.740;37.770;2024-02-23T04:17:40;8.89;70.52
79020;DHT22;72857;44.740;37.770;2024-02-23T04:18:41;8.92;70.22
79020;DHT22;72857;44.740;37.770;2024-02-23T04:19:43;8.92;70.31
79020;DHT22;72857;44.740;37.770;2024-02-23T04:20:45;8.95;70.23
79020;DHT22;72857;44.740;37.770;2024-02-23T04:21:46;8.99;69.71
79020;DHT22;72857;44.740;37.770;2024-02-23T04:22:47;9.02;69.36
79020;DHT22;72857;44.740;37.770;2024-02-23T04:23:49;9.04;69.35
79020;DHT22;72857;44.740;37.770;2024-02-23T04:24:50;9.09;69.39
79020;DHT22;72857;44.740;37.770;2024-02-23T04:25:52;9.08;69.41
79020;DHT22;72857;44.740;37.770;2024-02-23T04:26:53;9.12;69.07
79020;DHT22;72857;44.740;37.770;2024-02-23T04:27:54;9.09;68.74
79020;DHT22;72857;44.740;37.770;2024-02-23T04:28:56;9.12;68.88
79020;DHT22;72857;44.740;37.770;2024-02-23T04:29:57;9.15;68.75
79020;DHT22;72857;44.740;37.770;2024-02-23T04:31:00;9.15;68.83
79020;DHT22;72857;44.740;37.770;2024-02-23T04:32:02;9.18;69.15
79020;DHT22;72857;44.740;37.770;2024-02-23T04:33:03;9.20;69.24
79020;DHT22;72857;44.740;37.770;2024-02-23T04:34:05;9.19;69.10
79020;DHT22;72857;44.740;37.770;2024-02-23T04:35:06;9.20;69.21
79020;DHT22;72857;44.740;37.770;2024-02-23T04:36:08;9.20;69.44
79020;DHT22;72857;44.740;37.770;2024-02-23T04:37:09;9.20;69.44
79020;DHT22;72857;44.740;37.770;2024-02-23T04:38:11;9.18;69.77
79020;DHT22;72857;44.740;37.770;2024-02-23T04:39:12;9.22;69.83
79020;DHT22;72857;44.740;37.770;2024-02-23T04:40:14;9.20;69.83
79020;DHT22;72857;44.740;37.770;2024-02-23T04:41:19;9.23;69.67
79020;DHT22;72857;44.740;37.770;2024-02-23T04:42:21;9.25;69.69
79020;DHT22;72857;44.740;37.770;2024-02-23T04:43:23;9.27;69.89
79020;DHT22;72857;44.740;37.770;2024-02-23T04:44:25;9.26;69.87
79020;DHT22;72857;44.740;37.770;2024-02-23T04:45:26;9.29;70.05
79020;DHT22;72857;44.740;37.770;2024-02-23T04:46:27;9.25;70.15
79020;DHT22;72857;44.740;37.770;2024-02-23T04:47:29;9.19;70.27
79020;DHT22;72857;44.740;37.770;2024-02-23T04:48:30;9.18;70.54
79020;DHT22;72857;44.740;37.770;2024-02-23T04:49:32;9.18;70.52
79020;DHT22;72857;44.740;37.770;2024-02-23T04:50:33;9.16;70.56
79020;DHT22;72857;44.740;37.770;2024-02-23T04:51:35;9.22;70.70
79020;DHT22;72857;44.740;37.770;2024-02-23T04:52:36;9.20;70.78
79020;DHT22;72857;44.740;37.770;2024-02-23T04:53:38;9.25;70.80
79020;DHT22;72857;44.740;37.770;2024-02-23T04:54:40;9.22;70.58
79020;DHT22;72857;44.740;37.770;2024-02-23T04:55:41;9.25;70.64
79020;DHT22;72857;44.740;37.770;2024-02-23T04:56:42;9.27;70.43
79020;DHT22;72857;44.740;37.770;2024-02-23T04:57:44;9.27;70.07
79020;DHT22;72857;44.740;37.770;2024-02-23T04:58:45;9.30;70.04
79020;DHT22;72857;44.740;37.770;2024-02-23T04:59:47;9.27;69.91
79020;DHT22;72857;44.740;37.770;2024-02-23T05:00:48;9.27;69.80
79020;DHT22;72857;44.740;37.770;2024-02-23T05:01:50;9.27;69.89
79020;DHT22;72857;44.740;37.770;2024-02-23T05:02:51;9.29;70.00
79020;DHT22;72857;44.740;37.770;2024-02-23T05:03:53;9.27;70.27
79020;DHT22;72857;44.740;37.770;2024-02-23T05:04:54;9.23;70.01
79020;DHT22;72857;44.740;37.770;2024-02-23T05:05:55;9.20;69.76
79020;DHT22;72857;44.740;37.770;2024-02-23T05:06:57;9.22;69.77
79020;DHT22;72857;44.740;37.770;2024-02-23T05:07:59;9.22;69.46
79020;DHT22;72857;44.740;37.770;2024-02-23T05:09:01;9.19;69.39
79020;DHT22;72857;44.740;37.770;2024-02-23T05:10:03;9.19;69.37
79020;DHT22;72857;44.740;37.770;2024-02-23T05:11:05;9.16;69.36
79020;DHT22;72857;44.740;37.770;2024-02-23T05:12:08;9.16;69.48
79020;DHT22;72857;44.740;37.770;2024-02-23T05:13:09;9.19;69.21
79020;DHT22;72857;44.740;37.770;2024-02-23T05:14:11;9.14;69.20
79020;DHT22;72857;44.740;37.770;2024-02-23T05:15:12;9.18;69.36
79020;DHT22;72857;44.740;37.770;2024-02-23T05:16:14;9.16;69.40
79020;DHT22;72857;44.740;37.770;2024-02-23T05:17:15;9.15;69.17
79020;DHT22;72857;44.740;37.770;2024-02-23T05:18:17;9.18;69.12
79020;DHT22;72857;44.740;37.770;2024-02-23T05:19:18;9.15;69.21
79020;DHT22;72857;44.740;37.770;2024-02-23T05:20:20;9.15;69.57
79020;DHT22;72857;44.740;37.770;2024-02-23T05:21:21;9.11;69.50
79020;DHT22;72857;44.740;37.770;2024-02-23T05:22:23;9.12;69.39
79020;DHT22;72857;44.740;37.770;2024-02-23T05:23:24;9.16;69.19
79020;DHT22;72857;44.740;37.770;2024-02-23T05:24:25;9.19;68.98
79020;DHT22;72857;44.740;37.770;2024-02-23T05:25:27;9.20;69.03
79020;DHT22;72857;44.740;37.770;2024-02-23T05:26:29;9.20;69.76
79020;DHT22;72857;44.740;37.770;2024-02-23T05:27:31;9.14;69.82
79020;DHT22;72857;44.740;37.770;2024-02-23T05:28:32;9.05;70.11
79020;DHT22;72857;44.740;37.770;2024-02-23T05:29:33;9.01;70.35
79020;DHT22;72857;44.740;37.770;2024-02-23T05:30:35;8.96;70.62
79020;DHT22;72857;44.740;37.770;2024-02-23T05:31:46;8.98;70.80
79020;DHT22;72857;44.740;37.770;2024-02-23T05:32:48;8.96;70.86
79020;DHT22;72857;44.740;37.770;2024-02-23T05:33:49;8.96;70.76
79020;DHT22;72857;44.740;37.770;2024-02-23T05:34:51;8.95;70.78
79020;DHT22;72857;44.740;37.770;2024-02-23T05:35:54;8.93;70.75
79020;DHT22;72857;44.740;37.770;2024-02-23T05:36:55;8.89;70.29
79020;DHT22;72857;44.740;37.770;2024-02-23T05:37:57;8.89;70.33
79020;DHT22;72857;44.740;37.770;2024-02-23T05:38:59;8.91;70.35
79020;DHT22;72857;44.740;37.770;2024-02-23T05:40:01;8.89;70.34
79020;DHT22;72857;44.740;37.770;2024-02-23T05:41:05;8.86;70.69
79020;DHT22;72857;44.740;37.770;2024-02-23T05:42:06;8.88;70.68
79020;DHT22;72857;44.740;37.770;2024-02-23T05:43:08;8.95;70.84
79020;DHT22;72857;44.740;37.770;2024-02-23T05:44:09;8.96;70.36
79020;DHT22;72857;44.740;37.770;2024-02-23T05:45:14;9.02;70.20
79020;DHT22;72857;44.740;37.770;2024-02-23T05:46:16;9.04;70.42
79020;DHT22;72857;44.740;37.770;2024-02-23T05:47:19;9.05;70.31
79020;DHT22;72857;44.740;37.770;2024-02-23T05:48:22;9.08;70.67
79020;DHT22;72857;44.740;37.770;2024-02-23T05:49:23;9.11;70.69
79020;DHT22;72857;44.740;37.770;2024-02-23T05:50:25;9.12;70.68
79020;DHT22;72857;44.740;37.770;2024-02-23T05:51:28;9.20;70.60
79020;DHT22;72857;44.740;37.770;2024-02-23T05:52:33;9.25;70.39
79020;DHT22;72857;44.740;37.770;2024-02-23T05:53:35;9.33;70.29
79020;DHT22;72857;44.740;37.770;2024-02-23T05:54:36;9.39;70.03
79020;DHT22;72857;44.740;37.770;2024-02-23T05:55:37;9.46;69.81
79020;DHT22;72857;44.740;37.770;2024-02-23T05:56:39;9.51;68.90
79020;DHT22;72857;44.740;37.770;2024-02-23T05:57:40;9.56;68.84
79020;DHT22;72857;44.740;37.770;2024-02-23T05:58:42;9.64;68.45
79020;DHT22;72857;44.740;37.770;2024-02-23T05:59:43;9.64;68.73
79020;DHT22;72857;44.740;37.770;2024-02-23T06:00:45;9.70;68.23
79020;DHT22;72857;44.740;37.770;2024-02-23T06:01:46;9.71;68.33
79020;DHT22;72857;44.740;37.770;2024-02-23T06:02:47;9.80;68.07
79020;DHT22;72857;44.740;37.770;2024-02-23T06:03:49;9.87;67.63
79020;DHT22;72857;44.740;37.770;2024-02-23T06:04:51;9.93;67.70
79020;DHT22;72857;44.740;37.770;2024-02-23T06:05:52;9.97;67.55
79020;DHT22;72857;44.740;37.770;2024-02-23T06:06:55;9.99;67.76
79020;DHT22;72857;44.740;37.770;2024-02-23T06:07:56;10.05;67.31
79020;DHT22;72857;44.740;37.770;2024-02-23T06:08:58;10.08;66.50
79020;DHT22;72857;44.740;37.770;2024-02-23T06:10:01;10.09;66.40
79020;DHT22;72857;44.740;37.770;2024-02-23T06:11:03;10.21;66.22
79020;DHT22;72857;44.740;37.770;2024-02-23T06:12:05;10.22;65.83
79020;DHT22;72857;44.740;37.770;2024-02-23T06:13:07;10.28;66.21
79020;DHT22;72857;44.740;37.770;2024-02-23T06:14:08;10.31;65.81
79020;DHT22;72857;44.740;37.770;2024-02-23T06:15:10;10.35;66.66
79020;DHT22;72857;44.740;37.770;2024-02-23T06:16:12;10.41;66.44
79020;DHT22;72857;44.740;37.770;2024-02-23T06:17:14;10.42;66.48
79020;DHT22;72857;44.740;37.770;2024-02-23T06:18:16;10.45;66.67
79020;DHT22;72857;44.740;37.770;2024-02-23T06:19:17;10.44;67.01
79020;DHT22;72857;44.740;37.770;2024-02-23T06:20:19;10.45;66.84
79020;DHT22;72857;44.740;37.770;2024-02-23T06:21:21;10.46;66.78
79020;DHT22;72857;44.740;37.770;2024-02-23T06:22:22;10.52;66.80
79020;DHT22;72857;44.740;37.770;2024-02-23T06:23:24;10.63;66.30
79020;DHT22;72857;44.740;37.770;2024-02-23T06:24:26;10.76;66.08
79020;DHT22;72857;44.740;37.770;2024-02-23T06:25:27;10.90;65.82
79020;DHT22;72857;44.740;37.770;2024-02-23T06:26:29;11.01;65.14
79020;DHT22;72857;44.740;37.770;2024-02-23T06:27:30;11.13;65.28
79020;DHT22;72857;44.740;37.770;2024-02-23T06:28:31;11.23;65.58
79020;DHT22;72857;44.740;37.770;2024-02-23T06:29:35;11.28;65.38
79020;DHT22;72857;44.740;37.770;2024-02-23T06:30:37;11.28;65.03